This is the latest recevied weather packets stored in our database for station/object VE1RCI-13. If no packets are shown the sender has not sent any weather packets the latest 10 day(s).
| Time | Temp. | Humidity | Pressure | Rain* | Wind** | Luminosity | Snow |
|---|---|---|---|---|---|---|---|
| 1778076151 | 15.56° C | 73% | 1017 hPa | - | - | - | - |
| 1778075539 | 15° C | 73% | 1017.2 hPa | - | - | - | - |
| 1778074927 | 15° C | 74% | 1017.2 hPa | - | - | - | - |
| 1778074315 | 15° C | 75% | 1017.1 hPa | - | - | - | - |
| 1778073703 | 15° C | 75% | 1017 hPa | - | - | - | - |
| 1778073091 | 14.44° C | 76% | 1016.6 hPa | - | - | - | - |
| 1778072478 | 14.44° C | 76% | 1016.7 hPa | - | - | - | - |
| 1778071866 | 13.89° C | 77% | 1016.6 hPa | - | - | - | - |
| 1778071254 | 13.89° C | 77% | 1016.6 hPa | - | - | - | - |
| 1778070642 | 13.89° C | 77% | 1016.8 hPa | - | - | - | - |
| 1778070016 | 12.22° C | 78% | 1016.9 hPa | - | - | - | - |
| 1778069404 | 13.33° C | 78% | 1016.6 hPa | - | - | - | - |
| 1778068792 | 13.33° C | 78% | 1016.5 hPa | - | - | - | - |
| 1778068180 | 13.33° C | 78% | 1016.3 hPa | - | - | - | - |
| 1778067568 | 12.78° C | 78% | 1016.6 hPa | - | - | - | - |
| 1778066955 | 11.11° C | 77% | 1013.7 hPa | - | - | - | - |
| 1778066343 | 12.78° C | 77% | 1016.3 hPa | - | - | - | - |
| 1778065731 | 12.78° C | 76% | 1016.3 hPa | - | - | - | - |
| 1778065119 | 12.78° C | 76% | 1016.8 hPa | - | - | - | - |
| 1778064507 | 12.78° C | 75% | 1016.5 hPa | - | - | - | - |
| 1778063894 | 13.33° C | 74% | 1016.5 hPa | - | - | - | - |
| 1778063282 | 13.89° C | 74% | 1016.6 hPa | - | - | - | - |
| 1778062670 | 12.78° C | 76% | 1016.2 hPa | - | - | - | - |
| 1778062058 | 12.78° C | 76% | 1016.1 hPa | - | - | - | - |
| 1778061446 | 13.33° C | 76% | 1015.9 hPa | - | - | - | - |
* Rain since midnight (hover to see other rain measurements)
** Current wind speed in m/s (hover to see current wind gust speed)